sensor_id;sensor_type;location;lat;lon;timestamp;P1;durP1;ratioP1;P2;durP2;ratioP2
22298;SDS011;11317;51.072;17.036;2022-11-15T00:01:54;74.50;;;30.20;;
22298;SDS011;11317;51.072;17.036;2022-11-15T00:04:20;74.00;;;31.13;;
22298;SDS011;11317;51.072;17.036;2022-11-15T00:06:46;69.28;;;29.30;;
22298;SDS011;11317;51.072;17.036;2022-11-15T00:09:12;70.97;;;31.52;;
22298;SDS011;11317;51.072;17.036;2022-11-15T00:11:37;78.68;;;31.08;;
22298;SDS011;11317;51.072;17.036;2022-11-15T00:14:03;72.45;;;32.33;;
22298;SDS011;11317;51.072;17.036;2022-11-15T00:16:29;66.25;;;30.35;;
22298;SDS011;11317;51.072;17.036;2022-11-15T00:18:55;78.70;;;31.17;;
22298;SDS011;11317;51.072;17.036;2022-11-15T00:21:22;71.22;;;30.95;;
22298;SDS011;11317;51.072;17.036;2022-11-15T00:23:48;67.43;;;28.98;;
22298;SDS011;11317;51.072;17.036;2022-11-15T00:26:14;73.20;;;30.20;;
22298;SDS011;11317;51.072;17.036;2022-11-15T00:28:41;72.00;;;30.20;;
22298;SDS011;11317;51.072;17.036;2022-11-15T00:31:08;69.00;;;30.02;;
22298;SDS011;11317;51.072;17.036;2022-11-15T00:33:37;67.85;;;30.77;;
22298;SDS011;11317;51.072;17.036;2022-11-15T00:36:06;67.28;;;29.92;;
22298;SDS011;11317;51.072;17.036;2022-11-15T00:38:34;61.80;;;28.13;;
22298;SDS011;11317;51.072;17.036;2022-11-15T00:41:00;63.92;;;27.10;;
22298;SDS011;11317;51.072;17.036;2022-11-15T00:43:27;63.13;;;27.27;;
22298;SDS011;11317;51.072;17.036;2022-11-15T00:45:53;70.10;;;28.30;;
22298;SDS011;11317;51.072;17.036;2022-11-15T00:48:19;72.93;;;29.27;;
22298;SDS011;11317;51.072;17.036;2022-11-15T00:50:45;68.80;;;28.60;;
22298;SDS011;11317;51.072;17.036;2022-11-15T00:53:11;66.90;;;29.67;;
22298;SDS011;11317;51.072;17.036;2022-11-15T00:55:37;61.38;;;26.83;;
22298;SDS011;11317;51.072;17.036;2022-11-15T00:58:03;64.22;;;27.25;;
22298;SDS011;11317;51.072;17.036;2022-11-15T01:00:29;64.18;;;27.65;;
22298;SDS011;11317;51.072;17.036;2022-11-15T01:02:55;61.42;;;25.80;;
22298;SDS011;11317;51.072;17.036;2022-11-15T01:05:21;67.85;;;28.85;;
22298;SDS011;11317;51.072;17.036;2022-11-15T01:07:51;62.22;;;25.40;;
22298;SDS011;11317;51.072;17.036;2022-11-15T01:10:19;63.63;;;26.20;;
22298;SDS011;11317;51.072;17.036;2022-11-15T01:12:46;63.35;;;27.23;;
22298;SDS011;11317;51.072;17.036;2022-11-15T01:15:12;61.00;;;26.63;;
22298;SDS011;11317;51.072;17.036;2022-11-15T01:17:38;62.10;;;26.92;;
22298;SDS011;11317;51.072;17.036;2022-11-15T01:20:04;64.70;;;26.40;;
22298;SDS011;11317;51.072;17.036;2022-11-15T01:22:30;63.25;;;28.23;;
22298;SDS011;11317;51.072;17.036;2022-11-15T01:24:56;67.45;;;27.95;;
22298;SDS011;11317;51.072;17.036;2022-11-15T01:27:22;64.88;;;25.92;;
22298;SDS011;11317;51.072;17.036;2022-11-15T01:29:48;62.17;;;24.75;;
22298;SDS011;11317;51.072;17.036;2022-11-15T01:32:14;59.35;;;27.13;;
22298;SDS011;11317;51.072;17.036;2022-11-15T01:34:39;62.03;;;24.88;;
22298;SDS011;11317;51.072;17.036;2022-11-15T01:37:05;56.53;;;24.13;;
22298;SDS011;11317;51.072;17.036;2022-11-15T01:39:31;62.97;;;26.73;;
22298;SDS011;11317;51.072;17.036;2022-11-15T01:41:56;60.35;;;25.40;;
22298;SDS011;11317;51.072;17.036;2022-11-15T01:44:39;68.50;;;25.90;;
22298;SDS011;11317;51.072;17.036;2022-11-15T01:52:28;66.50;;;26.08;;
22298;SDS011;11317;51.072;17.036;2022-11-15T01:55:02;68.82;;;26.23;;
22298;SDS011;11317;51.072;17.036;2022-11-15T01:57:31;56.72;;;25.00;;
22298;SDS011;11317;51.072;17.036;2022-11-15T01:59:57;51.83;;;25.67;;
22298;SDS011;11317;51.072;17.036;2022-11-15T02:02:25;69.40;;;27.20;;
22298;SDS011;11317;51.072;17.036;2022-11-15T02:04:51;57.65;;;25.02;;
22298;SDS011;11317;51.072;17.036;2022-11-15T02:07:18;57.47;;;25.42;;
22298;SDS011;11317;51.072;17.036;2022-11-15T02:09:46;56.92;;;23.83;;
22298;SDS011;11317;51.072;17.036;2022-11-15T02:12:13;62.47;;;25.13;;
22298;SDS011;11317;51.072;17.036;2022-11-15T02:14:42;60.22;;;24.08;;
22298;SDS011;11317;51.072;17.036;2022-11-15T02:17:25;59.60;;;24.73;;
22298;SDS011;11317;51.072;17.036;2022-11-15T02:31:13;52.25;;;22.52;;
22298;SDS011;11317;51.072;17.036;2022-11-15T02:36:36;53.90;;;23.20;;
22298;SDS011;11317;51.072;17.036;2022-11-15T02:47:19;49.50;;;22.30;;
22298;SDS011;11317;51.072;17.036;2022-11-15T02:52:16;46.80;;;21.75;;
22298;SDS011;11317;51.072;17.036;2022-11-15T02:54:42;48.22;;;21.38;;
22298;SDS011;11317;51.072;17.036;2022-11-15T02:57:12;49.30;;;23.00;;
22298;SDS011;11317;51.072;17.036;2022-11-15T03:08:29;58.72;;;22.70;;
22298;SDS011;11317;51.072;17.036;2022-11-15T03:16:15;51.30;;;22.05;;
22298;SDS011;11317;51.072;17.036;2022-11-15T03:18:43;60.67;;;23.63;;
22298;SDS011;11317;51.072;17.036;2022-11-15T03:21:14;53.28;;;23.23;;
22298;SDS011;11317;51.072;17.036;2022-11-15T03:23:43;52.10;;;23.38;;
22298;SDS011;11317;51.072;17.036;2022-11-15T03:26:12;61.13;;;23.77;;
22298;SDS011;11317;51.072;17.036;2022-11-15T03:29:01;47.15;;;22.67;;
22298;SDS011;11317;51.072;17.036;2022-11-15T03:31:34;60.20;;;23.33;;
22298;SDS011;11317;51.072;17.036;2022-11-15T03:34:32;53.60;;;22.08;;
22298;SDS011;11317;51.072;17.036;2022-11-15T03:37:04;56.65;;;22.58;;
22298;SDS011;11317;51.072;17.036;2022-11-15T03:39:32;56.03;;;23.77;;
22298;SDS011;11317;51.072;17.036;2022-11-15T03:42:19;55.88;;;23.95;;
22298;SDS011;11317;51.072;17.036;2022-11-15T03:44:59;46.73;;;19.70;;
22298;SDS011;11317;51.072;17.036;2022-11-15T03:47:29;49.97;;;21.50;;
22298;SDS011;11317;51.072;17.036;2022-11-15T03:50:07;64.88;;;25.08;;
22298;SDS011;11317;51.072;17.036;2022-11-15T03:52:36;55.97;;;23.52;;
22298;SDS011;11317;51.072;17.036;2022-11-15T03:55:05;56.03;;;24.42;;
22298;SDS011;11317;51.072;17.036;2022-11-15T03:57:35;59.45;;;24.40;;
22298;SDS011;11317;51.072;17.036;2022-11-15T04:00:02;57.17;;;24.40;;
22298;SDS011;11317;51.072;17.036;2022-11-15T04:02:29;55.72;;;25.42;;
22298;SDS011;11317;51.072;17.036;2022-11-15T04:04:54;59.17;;;23.38;;
22298;SDS011;11317;51.072;17.036;2022-11-15T04:07:20;59.17;;;24.48;;
22298;SDS011;11317;51.072;17.036;2022-11-15T04:09:46;60.15;;;25.33;;
22298;SDS011;11317;51.072;17.036;2022-11-15T04:12:34;60.35;;;25.23;;
22298;SDS011;11317;51.072;17.036;2022-11-15T04:15:12;52.92;;;23.85;;
22298;SDS011;11317;51.072;17.036;2022-11-15T04:17:47;60.38;;;25.33;;
22298;SDS011;11317;51.072;17.036;2022-11-15T04:20:20;58.72;;;22.83;;
22298;SDS011;11317;51.072;17.036;2022-11-15T04:23:14;55.03;;;22.13;;
22298;SDS011;11317;51.072;17.036;2022-11-15T04:26:04;55.22;;;23.63;;
22298;SDS011;11317;51.072;17.036;2022-11-15T04:28:32;60.75;;;25.00;;
22298;SDS011;11317;51.072;17.036;2022-11-15T04:30:58;62.38;;;25.35;;
22298;SDS011;11317;51.072;17.036;2022-11-15T04:33:24;55.75;;;25.20;;
22298;SDS011;11317;51.072;17.036;2022-11-15T04:35:49;56.50;;;24.58;;
22298;SDS011;11317;51.072;17.036;2022-11-15T04:38:34;58.72;;;24.77;;
22298;SDS011;11317;51.072;17.036;2022-11-15T04:41:01;56.13;;;23.98;;
22298;SDS011;11317;51.072;17.036;2022-11-15T04:43:27;58.50;;;25.33;;
22298;SDS011;11317;51.072;17.036;2022-11-15T04:45:53;58.72;;;25.63;;
22298;SDS011;11317;51.072;17.036;2022-11-15T04:48:19;58.72;;;24.05;;
22298;SDS011;11317;51.072;17.036;2022-11-15T04:50:47;58.65;;;25.33;;
22298;SDS011;11317;51.072;17.036;2022-11-15T04:53:13;49.60;;;23.35;;
22298;SDS011;11317;51.072;17.036;2022-11-15T04:55:39;58.20;;;23.38;;
22298;SDS011;11317;51.072;17.036;2022-11-15T04:58:08;50.47;;;21.95;;
22298;SDS011;11317;51.072;17.036;2022-11-15T05:00:35;50.50;;;24.10;;
22298;SDS011;11317;51.072;17.036;2022-11-15T05:03:01;51.30;;;24.10;;
22298;SDS011;11317;51.072;17.036;2022-11-15T05:05:45;55.75;;;22.52;;
22298;SDS011;11317;51.072;17.036;2022-11-15T05:08:11;56.00;;;23.02;;
22298;SDS011;11317;51.072;17.036;2022-11-15T05:10:37;54.85;;;24.08;;
22298;SDS011;11317;51.072;17.036;2022-11-15T05:13:03;58.05;;;23.88;;
22298;SDS011;11317;51.072;17.036;2022-11-15T05:15:29;49.63;;;22.23;;
22298;SDS011;11317;51.072;17.036;2022-11-15T05:17:58;55.67;;;22.70;;
22298;SDS011;11317;51.072;17.036;2022-11-15T05:20:27;53.25;;;22.08;;
22298;SDS011;11317;51.072;17.036;2022-11-15T05:22:53;51.67;;;23.48;;
22298;SDS011;11317;51.072;17.036;2022-11-15T05:25:20;47.33;;;21.35;;
22298;SDS011;11317;51.072;17.036;2022-11-15T05:27:46;58.95;;;24.15;;
22298;SDS011;11317;51.072;17.036;2022-11-15T05:30:13;51.45;;;23.80;;
22298;SDS011;11317;51.072;17.036;2022-11-15T05:32:39;54.75;;;23.58;;
22298;SDS011;11317;51.072;17.036;2022-11-15T05:35:05;52.05;;;23.17;;
22298;SDS011;11317;51.072;17.036;2022-11-15T05:37:33;47.92;;;22.77;;
22298;SDS011;11317;51.072;17.036;2022-11-15T05:39:59;53.17;;;24.83;;
22298;SDS011;11317;51.072;17.036;2022-11-15T05:42:25;50.28;;;22.67;;
22298;SDS011;11317;51.072;17.036;2022-11-15T05:44:52;51.78;;;22.63;;
22298;SDS011;11317;51.072;17.036;2022-11-15T05:47:22;51.97;;;21.80;;
22298;SDS011;11317;51.072;17.036;2022-11-15T05:49:50;48.10;;;21.77;;
22298;SDS011;11317;51.072;17.036;2022-11-15T05:52:19;47.33;;;22.38;;
22298;SDS011;11317;51.072;17.036;2022-11-15T05:54:48;51.30;;;21.60;;
22298;SDS011;11317;51.072;17.036;2022-11-15T05:57:15;41.92;;;19.77;;
22298;SDS011;11317;51.072;17.036;2022-11-15T05:59:41;49.45;;;22.38;;
22298;SDS011;11317;51.072;17.036;2022-11-15T06:02:08;47.88;;;21.55;;
22298;SDS011;11317;51.072;17.036;2022-11-15T06:04:34;51.85;;;21.25;;
22298;SDS011;11317;51.072;17.036;2022-11-15T06:07:01;51.03;;;22.20;;
22298;SDS011;11317;51.072;17.036;2022-11-15T06:09:27;44.75;;;20.42;;
22298;SDS011;11317;51.072;17.036;2022-11-15T06:11:53;50.70;;;22.60;;
22298;SDS011;11317;51.072;17.036;2022-11-15T06:14:18;52.10;;;24.02;;
22298;SDS011;11317;51.072;17.036;2022-11-15T06:16:44;58.13;;;22.15;;
22298;SDS011;11317;51.072;17.036;2022-11-15T06:19:10;45.45;;;19.83;;
22298;SDS011;11317;51.072;17.036;2022-11-15T06:21:36;52.95;;;20.20;;
22298;SDS011;11317;51.072;17.036;2022-11-15T06:24:02;55.30;;;23.80;;
22298;SDS011;11317;51.072;17.036;2022-11-15T06:26:28;59.25;;;23.17;;
22298;SDS011;11317;51.072;17.036;2022-11-15T06:28:54;47.70;;;21.45;;
22298;SDS011;11317;51.072;17.036;2022-11-15T06:31:20;53.47;;;22.35;;
22298;SDS011;11317;51.072;17.036;2022-11-15T06:33:46;59.88;;;24.95;;
22298;SDS011;11317;51.072;17.036;2022-11-15T06:36:14;50.60;;;23.77;;
22298;SDS011;11317;51.072;17.036;2022-11-15T06:38:42;61.92;;;24.70;;
22298;SDS011;11317;51.072;17.036;2022-11-15T06:41:08;54.95;;;24.17;;
22298;SDS011;11317;51.072;17.036;2022-11-15T06:43:35;57.17;;;24.50;;
22298;SDS011;11317;51.072;17.036;2022-11-15T06:46:02;58.25;;;23.92;;
22298;SDS011;11317;51.072;17.036;2022-11-15T06:48:29;52.63;;;24.90;;
22298;SDS011;11317;51.072;17.036;2022-11-15T06:50:56;60.58;;;26.55;;
22298;SDS011;11317;51.072;17.036;2022-11-15T06:53:23;74.75;;;29.55;;
22298;SDS011;11317;51.072;17.036;2022-11-15T06:55:49;76.15;;;30.48;;
22298;SDS011;11317;51.072;17.036;2022-11-15T06:58:15;62.15;;;30.38;;
22298;SDS011;11317;51.072;17.036;2022-11-15T07:00:41;62.30;;;32.15;;
22298;SDS011;11317;51.072;17.036;2022-11-15T07:03:08;75.18;;;35.08;;
22298;SDS011;11317;51.072;17.036;2022-11-15T07:05:35;55.00;;;28.70;;
22298;SDS011;11317;51.072;17.036;2022-11-15T07:08:01;52.28;;;26.25;;
22298;SDS011;11317;51.072;17.036;2022-11-15T07:10:28;44.58;;;22.42;;
22298;SDS011;11317;51.072;17.036;2022-11-15T07:12:54;40.97;;;20.08;;
22298;SDS011;11317;51.072;17.036;2022-11-15T07:15:22;37.67;;;20.02;;
22298;SDS011;11317;51.072;17.036;2022-11-15T07:17:49;33.55;;;17.23;;
22298;SDS011;11317;51.072;17.036;2022-11-15T07:20:15;34.05;;;18.65;;
22298;SDS011;11317;51.072;17.036;2022-11-15T07:22:41;29.98;;;17.33;;
22298;SDS011;11317;51.072;17.036;2022-11-15T07:25:10;35.13;;;18.23;;
22298;SDS011;11317;51.072;17.036;2022-11-15T07:27:35;28.88;;;17.30;;
22298;SDS011;11317;51.072;17.036;2022-11-15T07:30:01;34.72;;;18.45;;
22298;SDS011;11317;51.072;17.036;2022-11-15T07:32:28;37.35;;;19.98;;
22298;SDS011;11317;51.072;17.036;2022-11-15T07:34:53;36.28;;;18.40;;
22298;SDS011;11317;51.072;17.036;2022-11-15T07:37:20;35.25;;;19.25;;
22298;SDS011;11317;51.072;17.036;2022-11-15T07:39:45;40.50;;;18.83;;
22298;SDS011;11317;51.072;17.036;2022-11-15T07:42:11;37.55;;;19.95;;
22298;SDS011;11317;51.072;17.036;2022-11-15T07:44:56;36.15;;;19.30;;
22298;SDS011;11317;51.072;17.036;2022-11-15T07:47:22;36.45;;;19.02;;
22298;SDS011;11317;51.072;17.036;2022-11-15T07:49:48;30.60;;;17.60;;
22298;SDS011;11317;51.072;17.036;2022-11-15T07:52:14;34.30;;;17.42;;
22298;SDS011;11317;51.072;17.036;2022-11-15T07:54:39;33.83;;;18.08;;
22298;SDS011;11317;51.072;17.036;2022-11-15T07:57:05;31.48;;;16.35;;
22298;SDS011;11317;51.072;17.036;2022-11-15T07:59:34;34.22;;;17.80;;
22298;SDS011;11317;51.072;17.036;2022-11-15T08:02:00;31.65;;;18.38;;
22298;SDS011;11317;51.072;17.036;2022-11-15T08:04:26;32.58;;;18.65;;
22298;SDS011;11317;51.072;17.036;2022-11-15T08:06:52;39.70;;;19.75;;
22298;SDS011;11317;51.072;17.036;2022-11-15T08:09:18;35.92;;;18.75;;
22298;SDS011;11317;51.072;17.036;2022-11-15T08:11:44;34.67;;;19.70;;
22298;SDS011;11317;51.072;17.036;2022-11-15T08:14:10;35.67;;;20.02;;
22298;SDS011;11317;51.072;17.036;2022-11-15T08:16:36;33.50;;;19.42;;
22298;SDS011;11317;51.072;17.036;2022-11-15T08:19:02;36.10;;;20.38;;
22298;SDS011;11317;51.072;17.036;2022-11-15T08:21:28;34.85;;;21.42;;
22298;SDS011;11317;51.072;17.036;2022-11-15T08:23:54;35.50;;;21.30;;
22298;SDS011;11317;51.072;17.036;2022-11-15T08:26:20;35.40;;;20.48;;
22298;SDS011;11317;51.072;17.036;2022-11-15T08:28:46;34.25;;;20.48;;
22298;SDS011;11317;51.072;17.036;2022-11-15T08:31:16;39.58;;;21.05;;
22298;SDS011;11317;51.072;17.036;2022-11-15T08:33:43;36.55;;;21.42;;
22298;SDS011;11317;51.072;17.036;2022-11-15T08:36:12;34.70;;;20.02;;
22298;SDS011;11317;51.072;17.036;2022-11-15T08:38:39;40.22;;;21.25;;
22298;SDS011;11317;51.072;17.036;2022-11-15T08:41:05;30.13;;;20.25;;
22298;SDS011;11317;51.072;17.036;2022-11-15T08:43:32;37.78;;;23.08;;
22298;SDS011;11317;51.072;17.036;2022-11-15T08:45:58;38.72;;;22.95;;
22298;SDS011;11317;51.072;17.036;2022-11-15T08:48:24;41.88;;;22.48;;
22298;SDS011;11317;51.072;17.036;2022-11-15T08:50:54;45.20;;;23.45;;
22298;SDS011;11317;51.072;17.036;2022-11-15T08:53:20;41.38;;;22.98;;
22298;SDS011;11317;51.072;17.036;2022-11-15T08:55:46;37.35;;;21.98;;
22298;SDS011;11317;51.072;17.036;2022-11-15T08:58:12;39.08;;;23.13;;
22298;SDS011;11317;51.072;17.036;2022-11-15T09:00:37;40.10;;;23.30;;
22298;SDS011;11317;51.072;17.036;2022-11-15T09:03:04;37.17;;;22.25;;
22298;SDS011;11317;51.072;17.036;2022-11-15T09:05:30;37.20;;;21.13;;
22298;SDS011;11317;51.072;17.036;2022-11-15T09:07:56;41.95;;;22.92;;
22298;SDS011;11317;51.072;17.036;2022-11-15T09:10:22;41.28;;;23.15;;
22298;SDS011;11317;51.072;17.036;2022-11-15T09:12:49;44.80;;;23.08;;
22298;SDS011;11317;51.072;17.036;2022-11-15T09:15:15;42.15;;;22.63;;
22298;SDS011;11317;51.072;17.036;2022-11-15T09:17:41;40.60;;;22.88;;
22298;SDS011;11317;51.072;17.036;2022-11-15T09:20:08;42.95;;;22.65;;
22298;SDS011;11317;51.072;17.036;2022-11-15T09:22:34;41.92;;;22.40;;
22298;SDS011;11317;51.072;17.036;2022-11-15T09:25:01;34.78;;;20.02;;
22298;SDS011;11317;51.072;17.036;2022-11-15T09:27:28;36.95;;;21.00;;
22298;SDS011;11317;51.072;17.036;2022-11-15T09:29:55;35.40;;;21.15;;
22298;SDS011;11317;51.072;17.036;2022-11-15T09:32:21;38.58;;;21.35;;
22298;SDS011;11317;51.072;17.036;2022-11-15T09:34:50;39.00;;;20.83;;
22298;SDS011;11317;51.072;17.036;2022-11-15T09:37:16;36.80;;;21.35;;
22298;SDS011;11317;51.072;17.036;2022-11-15T09:39:42;34.25;;;20.58;;
22298;SDS011;11317;51.072;17.036;2022-11-15T09:45:04;36.38;;;21.35;;
22298;SDS011;11317;51.072;17.036;2022-11-15T09:49:59;35.10;;;19.10;;
22298;SDS011;11317;51.072;17.036;2022-11-15T09:52:33;33.28;;;19.80;;
22298;SDS011;11317;51.072;17.036;2022-11-15T09:55:01;30.80;;;19.90;;
22298;SDS011;11317;51.072;17.036;2022-11-15T10:05:07;33.30;;;20.25;;
22298;SDS011;11317;51.072;17.036;2022-11-15T10:10:43;27.23;;;17.20;;
22298;SDS011;11317;51.072;17.036;2022-11-15T10:13:16;35.50;;;19.17;;
22298;SDS011;11317;51.072;17.036;2022-11-15T10:15:48;35.13;;;19.58;;
22298;SDS011;11317;51.072;17.036;2022-11-15T10:18:19;33.45;;;20.15;;
22298;SDS011;11317;51.072;17.036;2022-11-15T10:21:15;30.98;;;18.83;;
22298;SDS011;11317;51.072;17.036;2022-11-15T10:23:44;35.72;;;18.90;;
22298;SDS011;11317;51.072;17.036;2022-11-15T10:26:15;32.53;;;18.27;;
22298;SDS011;11317;51.072;17.036;2022-11-15T10:28:41;28.92;;;17.83;;
22298;SDS011;11317;51.072;17.036;2022-11-15T10:31:22;31.77;;;17.23;;
22298;SDS011;11317;51.072;17.036;2022-11-15T10:36:24;16.52;;;10.45;;
22298;SDS011;11317;51.072;17.036;2022-11-15T10:46:38;20.15;;;9.80;;
22298;SDS011;11317;51.072;17.036;2022-11-15T10:51:47;13.63;;;8.43;;
22298;SDS011;11317;51.072;17.036;2022-11-15T10:54:17;19.00;;;10.48;;
22298;SDS011;11317;51.072;17.036;2022-11-15T10:56:50;24.02;;;11.95;;
22298;SDS011;11317;51.072;17.036;2022-11-15T10:59:21;26.25;;;12.38;;
22298;SDS011;11317;51.072;17.036;2022-11-15T11:01:51;27.50;;;13.13;;
22298;SDS011;11317;51.072;17.036;2022-11-15T11:04:17;24.20;;;13.02;;
22298;SDS011;11317;51.072;17.036;2022-11-15T11:11:52;23.10;;;12.40;;
22298;SDS011;11317;51.072;17.036;2022-11-15T11:14:24;21.33;;;11.25;;
22298;SDS011;11317;51.072;17.036;2022-11-15T11:19:33;20.50;;;10.98;;
22298;SDS011;11317;51.072;17.036;2022-11-15T11:22:19;17.05;;;10.43;;
22298;SDS011;11317;51.072;17.036;2022-11-15T11:33:20;19.48;;;10.23;;
22298;SDS011;11317;51.072;17.036;2022-11-15T11:44:43;16.13;;;9.05;;
22298;SDS011;11317;51.072;17.036;2022-11-15T11:47:21;15.98;;;8.85;;
22298;SDS011;11317;51.072;17.036;2022-11-15T11:55:02;16.30;;;8.95;;
22298;SDS011;11317;51.072;17.036;2022-11-15T12:00:31;15.07;;;9.07;;
22298;SDS011;11317;51.072;17.036;2022-11-15T12:05:44;17.90;;;8.77;;
22298;SDS011;11317;51.072;17.036;2022-11-15T12:08:22;11.73;;;8.05;;
22298;SDS011;11317;51.072;17.036;2022-11-15T12:11:10;12.32;;;7.40;;
22298;SDS011;11317;51.072;17.036;2022-11-15T12:13:43;11.00;;;7.22;;
22298;SDS011;11317;51.072;17.036;2022-11-15T12:18:44;15.40;;;8.05;;
22298;SDS011;11317;51.072;17.036;2022-11-15T12:24:00;10.30;;;7.05;;
22298;SDS011;11317;51.072;17.036;2022-11-15T12:26:33;15.35;;;7.43;;
22298;SDS011;11317;51.072;17.036;2022-11-15T12:29:13;13.00;;;7.28;;
22298;SDS011;11317;51.072;17.036;2022-11-15T12:31:49;12.95;;;7.40;;
22298;SDS011;11317;51.072;17.036;2022-11-15T12:36:46;11.00;;;7.00;;
22298;SDS011;11317;51.072;17.036;2022-11-15T12:39:13;13.95;;;7.68;;
22298;SDS011;11317;51.072;17.036;2022-11-15T12:41:44;14.48;;;8.30;;
22298;SDS011;11317;51.072;17.036;2022-11-15T13:25:40;18.05;;;10.38;;
22298;SDS011;11317;51.072;17.036;2022-11-15T13:28:33;16.73;;;9.32;;
22298;SDS011;11317;51.072;17.036;2022-11-15T13:31:22;17.08;;;9.95;;
22298;SDS011;11317;51.072;17.036;2022-11-15T13:34:23;16.33;;;9.90;;
22298;SDS011;11317;51.072;17.036;2022-11-15T13:36:52;18.95;;;10.15;;
22298;SDS011;11317;51.072;17.036;2022-11-15T13:39:28;19.23;;;10.77;;
22298;SDS011;11317;51.072;17.036;2022-11-15T13:41:55;20.08;;;9.88;;
22298;SDS011;11317;51.072;17.036;2022-11-15T13:44:31;18.13;;;10.07;;
22298;SDS011;11317;51.072;17.036;2022-11-15T13:47:02;15.38;;;9.55;;
22298;SDS011;11317;51.072;17.036;2022-11-15T13:49:37;19.50;;;11.05;;
22298;SDS011;11317;51.072;17.036;2022-11-15T13:52:04;18.95;;;10.23;;
22298;SDS011;11317;51.072;17.036;2022-11-15T13:54:40;17.25;;;11.05;;
22298;SDS011;11317;51.072;17.036;2022-11-15T13:57:30;18.48;;;10.63;;
22298;SDS011;11317;51.072;17.036;2022-11-15T14:03:05;20.77;;;10.65;;
22298;SDS011;11317;51.072;17.036;2022-11-15T14:05:44;19.95;;;11.00;;
22298;SDS011;11317;51.072;17.036;2022-11-15T14:08:27;18.45;;;10.02;;
22298;SDS011;11317;51.072;17.036;2022-11-15T14:11:06;19.42;;;11.25;;
22298;SDS011;11317;51.072;17.036;2022-11-15T14:13:41;20.35;;;11.20;;
22298;SDS011;11317;51.072;17.036;2022-11-15T14:18:47;17.83;;;9.35;;
22298;SDS011;11317;51.072;17.036;2022-11-15T14:21:14;18.85;;;9.90;;
22298;SDS011;11317;51.072;17.036;2022-11-15T14:23:41;20.58;;;10.20;;
22298;SDS011;11317;51.072;17.036;2022-11-15T14:26:10;18.67;;;10.20;;
22298;SDS011;11317;51.072;17.036;2022-11-15T14:28:57;19.38;;;9.90;;
22298;SDS011;11317;51.072;17.036;2022-11-15T14:31:23;19.83;;;9.90;;
22298;SDS011;11317;51.072;17.036;2022-11-15T14:33:48;18.20;;;10.32;;
22298;SDS011;11317;51.072;17.036;2022-11-15T14:36:15;18.67;;;10.00;;
22298;SDS011;11317;51.072;17.036;2022-11-15T14:38:43;17.33;;;9.20;;
22298;SDS011;11317;51.072;17.036;2022-11-15T14:41:33;27.95;;;14.75;;
22298;SDS011;11317;51.072;17.036;2022-11-15T14:43:59;36.20;;;18.48;;
22298;SDS011;11317;51.072;17.036;2022-11-15T14:46:24;41.50;;;20.77;;
22298;SDS011;11317;51.072;17.036;2022-11-15T14:48:50;38.88;;;18.00;;
22298;SDS011;11317;51.072;17.036;2022-11-15T14:51:17;32.22;;;15.02;;
22298;SDS011;11317;51.072;17.036;2022-11-15T14:53:43;22.58;;;11.07;;
22298;SDS011;11317;51.072;17.036;2022-11-15T14:56:12;20.42;;;10.88;;
22298;SDS011;11317;51.072;17.036;2022-11-15T14:58:38;18.23;;;10.35;;
22298;SDS011;11317;51.072;17.036;2022-11-15T15:03:41;23.15;;;12.48;;
22298;SDS011;11317;51.072;17.036;2022-11-15T15:06:09;32.25;;;14.50;;
22298;SDS011;11317;51.072;17.036;2022-11-15T15:08:35;31.15;;;13.30;;
22298;SDS011;11317;51.072;17.036;2022-11-15T15:11:00;26.75;;;13.15;;
22298;SDS011;11317;51.072;17.036;2022-11-15T15:13:26;28.38;;;12.73;;
22298;SDS011;11317;51.072;17.036;2022-11-15T15:15:53;36.97;;;14.43;;
22298;SDS011;11317;51.072;17.036;2022-11-15T15:18:19;37.72;;;16.52;;
22298;SDS011;11317;51.072;17.036;2022-11-15T15:20:47;34.92;;;15.85;;
22298;SDS011;11317;51.072;17.036;2022-11-15T15:23:19;30.98;;;16.10;;
22298;SDS011;11317;51.072;17.036;2022-11-15T15:25:46;28.05;;;14.77;;
22298;SDS011;11317;51.072;17.036;2022-11-15T15:28:13;36.60;;;16.20;;
22298;SDS011;11317;51.072;17.036;2022-11-15T15:30:40;30.65;;;15.18;;
22298;SDS011;11317;51.072;17.036;2022-11-15T15:33:06;34.80;;;15.90;;
22298;SDS011;11317;51.072;17.036;2022-11-15T15:35:33;31.77;;;15.95;;
22298;SDS011;11317;51.072;17.036;2022-11-15T15:37:59;32.90;;;15.00;;
22298;SDS011;11317;51.072;17.036;2022-11-15T15:40:26;30.80;;;15.35;;
22298;SDS011;11317;51.072;17.036;2022-11-15T15:42:54;33.15;;;16.30;;
22298;SDS011;11317;51.072;17.036;2022-11-15T15:45:20;34.90;;;17.08;;
22298;SDS011;11317;51.072;17.036;2022-11-15T15:47:46;33.08;;;15.60;;
22298;SDS011;11317;51.072;17.036;2022-11-15T15:50:22;28.40;;;13.70;;
22298;SDS011;11317;51.072;17.036;2022-11-15T15:52:58;32.50;;;15.98;;
22298;SDS011;11317;51.072;17.036;2022-11-15T15:55:25;28.70;;;14.30;;
22298;SDS011;11317;51.072;17.036;2022-11-15T15:57:51;30.60;;;15.02;;
22298;SDS011;11317;51.072;17.036;2022-11-15T16:00:18;33.42;;;15.38;;
22298;SDS011;11317;51.072;17.036;2022-11-15T16:02:46;32.97;;;16.23;;
22298;SDS011;11317;51.072;17.036;2022-11-15T16:05:14;33.53;;;17.10;;
22298;SDS011;11317;51.072;17.036;2022-11-15T16:07:40;32.38;;;15.55;;
22298;SDS011;11317;51.072;17.036;2022-11-15T16:13:09;41.40;;;19.20;;
22298;SDS011;11317;51.072;17.036;2022-11-15T16:15:35;42.55;;;20.13;;
22298;SDS011;11317;51.072;17.036;2022-11-15T16:18:01;44.13;;;20.88;;
22298;SDS011;11317;51.072;17.036;2022-11-15T16:22:54;50.20;;;23.45;;
22298;SDS011;11317;51.072;17.036;2022-11-15T16:25:20;47.42;;;24.10;;
22298;SDS011;11317;51.072;17.036;2022-11-15T16:27:46;55.67;;;23.48;;
22298;SDS011;11317;51.072;17.036;2022-11-15T16:30:16;41.80;;;20.80;;
22298;SDS011;11317;51.072;17.036;2022-11-15T16:32:43;37.97;;;19.15;;
22298;SDS011;11317;51.072;17.036;2022-11-15T16:35:13;38.50;;;18.70;;
22298;SDS011;11317;51.072;17.036;2022-11-15T16:37:39;34.20;;;17.70;;
22298;SDS011;11317;51.072;17.036;2022-11-15T16:40:26;40.90;;;18.77;;
22298;SDS011;11317;51.072;17.036;2022-11-15T16:42:54;37.88;;;18.60;;
22298;SDS011;11317;51.072;17.036;2022-11-15T16:45:21;35.33;;;17.08;;
22298;SDS011;11317;51.072;17.036;2022-11-15T16:47:47;40.25;;;18.50;;
22298;SDS011;11317;51.072;17.036;2022-11-15T16:50:26;39.13;;;20.60;;
22298;SDS011;11317;51.072;17.036;2022-11-15T16:52:55;41.45;;;19.35;;
22298;SDS011;11317;51.072;17.036;2022-11-15T16:55:22;40.72;;;20.20;;
22298;SDS011;11317;51.072;17.036;2022-11-15T16:57:52;42.10;;;19.30;;
22298;SDS011;11317;51.072;17.036;2022-11-15T17:00:19;47.05;;;19.83;;
22298;SDS011;11317;51.072;17.036;2022-11-15T17:02:46;45.42;;;20.75;;
22298;SDS011;11317;51.072;17.036;2022-11-15T17:05:13;48.13;;;20.10;;
22298;SDS011;11317;51.072;17.036;2022-11-15T17:07:40;39.85;;;20.13;;
22298;SDS011;11317;51.072;17.036;2022-11-15T17:10:08;44.90;;;20.17;;
22298;SDS011;11317;51.072;17.036;2022-11-15T17:12:36;36.63;;;19.10;;
22298;SDS011;11317;51.072;17.036;2022-11-15T17:15:03;42.70;;;21.35;;